createdAt,value
2022-12-29T00:01:08.957Z,9.38
2022-12-29T00:04:15.312Z,9.42
2022-12-29T00:07:18.418Z,9.48
2022-12-29T00:10:19.929Z,9.60
2022-12-29T00:13:21.381Z,9.55
2022-12-29T00:16:23.202Z,9.50
2022-12-29T00:19:25.191Z,9.62
2022-12-29T00:22:27.159Z,9.63
2022-12-29T00:25:28.765Z,9.70
2022-12-29T00:28:30.227Z,9.70
2022-12-29T00:31:31.844Z,9.71
2022-12-29T00:34:33.938Z,9.66
2022-12-29T00:37:42.478Z,9.60
2022-12-29T00:40:44.230Z,9.69
2022-12-29T00:43:45.794Z,9.85
2022-12-29T00:46:47.446Z,9.80
2022-12-29T00:49:49.006Z,9.69
2022-12-29T00:52:52.095Z,9.59
2022-12-29T00:55:53.673Z,9.53
2022-12-29T00:58:55.260Z,9.34
2022-12-29T01:01:57.348Z,9.35
2022-12-29T01:04:59.019Z,9.38
2022-12-29T01:08:00.572Z,9.34
2022-12-29T01:11:06.560Z,9.28
2022-12-29T01:14:08.844Z,9.22
2022-12-29T01:17:10.271Z,9.19
2022-12-29T01:20:12.367Z,9.16
2022-12-29T01:23:14.111Z,9.26
2022-12-29T01:26:17.072Z,9.28
2022-12-29T01:29:19.704Z,9.25
2022-12-29T01:32:24.196Z,9.25
2022-12-29T01:35:25.747Z,9.37
2022-12-29T01:38:27.317Z,9.42
2022-12-29T01:41:28.862Z,9.40
2022-12-29T01:44:51.797Z,9.31
2022-12-29T01:47:57.816Z,9.31
2022-12-29T01:50:59.516Z,9.31
2022-12-29T01:54:05.865Z,9.22
2022-12-29T01:57:31.223Z,9.22
2022-12-29T02:00:33.188Z,9.10
2022-12-29T02:03:36.993Z,9.10
2022-12-29T02:06:48.418Z,9.15
2022-12-29T02:09:53.710Z,9.17
2022-12-29T02:12:55.236Z,9.23
2022-12-29T02:16:14.065Z,9.19
2022-12-29T02:19:47.824Z,9.15
2022-12-29T02:23:16.914Z,9.17
2022-12-29T02:26:27.934Z,9.16
2022-12-29T02:29:48.169Z,9.28
2022-12-29T02:33:14.467Z,9.20
2022-12-29T02:36:49.996Z,9.22
2022-12-29T02:39:54.981Z,9.27
2022-12-29T02:43:07.159Z,9.30
2022-12-29T02:46:22.351Z,9.26
2022-12-29T02:49:30.814Z,9.27
2022-12-29T02:52:40.168Z,9.25
2022-12-29T02:55:49.495Z,9.36
2022-12-29T02:58:51.225Z,9.41
2022-12-29T03:02:13.094Z,9.38
2022-12-29T03:05:33.489Z,9.26
2022-12-29T03:09:06.123Z,9.24
2022-12-29T03:12:32.391Z,9.07
2022-12-29T03:15:40.743Z,9.05
2022-12-29T03:19:01.113Z,9.02
2022-12-29T03:22:08.242Z,9.00
2022-12-29T03:25:23.282Z,9.10
2022-12-29T03:28:37.156Z,9.15
2022-12-29T03:31:40.192Z,9.25
2022-12-29T03:34:42.389Z,9.13
2022-12-29T03:37:51.230Z,9.14
2022-12-29T03:41:06.665Z,9.00
2022-12-29T03:44:09.489Z,9.17
2022-12-29T03:47:12.348Z,9.08
2022-12-29T03:50:14.302Z,9.10
2022-12-29T03:53:17.573Z,9.21
2022-12-29T03:56:20.328Z,9.20
2022-12-29T03:59:23.762Z,9.22
2022-12-29T04:02:25.549Z,9.09
2022-12-29T04:05:28.195Z,8.99
2022-12-29T04:08:30.518Z,8.89
2022-12-29T04:11:34.659Z,8.97
2022-12-29T04:14:38.260Z,9.08
2022-12-29T04:17:39.767Z,9.11
2022-12-29T04:20:41.692Z,9.05
2022-12-29T04:23:43.742Z,9.04
2022-12-29T04:26:47.182Z,9.00
2022-12-29T04:30:08.339Z,9.00
2022-12-29T04:33:19.328Z,8.97
2022-12-29T04:36:24.277Z,8.93
2022-12-29T04:39:31.315Z,8.81
2022-12-29T04:42:33.010Z,8.65
2022-12-29T04:45:35.289Z,8.65
2022-12-29T04:48:45.967Z,8.69
2022-12-29T04:52:03.552Z,8.67
2022-12-29T04:55:06.454Z,8.59
2022-12-29T04:58:09.285Z,8.57
2022-12-29T05:01:11.392Z,8.54
2022-12-29T05:04:12.936Z,8.57
2022-12-29T05:07:16.759Z,8.50
2022-12-29T05:10:20.247Z,8.44
2022-12-29T05:13:26.027Z,8.28
2022-12-29T05:16:28.649Z,8.25
2022-12-29T05:19:30.602Z,8.13
2022-12-29T05:22:32.212Z,8.07
2022-12-29T05:25:35.150Z,8.03
2022-12-29T05:28:59.861Z,8.03
2022-12-29T05:32:01.596Z,7.99
2022-12-29T05:35:09.375Z,7.90
2022-12-29T05:38:11.171Z,7.76
2022-12-29T05:41:13.721Z,7.79
2022-12-29T05:44:35.649Z,7.84
2022-12-29T05:48:06.422Z,7.97
2022-12-29T05:51:33.651Z,8.08
2022-12-29T05:54:35.228Z,8.09
2022-12-29T05:57:41.584Z,8.06
2022-12-29T06:00:48.789Z,8.10
2022-12-29T06:03:50.509Z,8.07
2022-12-29T06:06:54.972Z,7.93
2022-12-29T06:10:09.439Z,7.81
2022-12-29T06:13:31.171Z,7.71
2022-12-29T06:16:33.101Z,7.76
2022-12-29T06:19:37.712Z,7.67
2022-12-29T06:22:41.768Z,7.62
2022-12-29T06:25:43.538Z,7.65
2022-12-29T06:28:45.173Z,7.65
2022-12-29T06:31:47.515Z,7.65
2022-12-29T06:34:49.397Z,7.66
2022-12-29T06:37:51.275Z,7.72
2022-12-29T06:40:52.936Z,7.81
2022-12-29T06:44:13.127Z,7.81
2022-12-29T06:47:36.548Z,7.87
2022-12-29T06:50:38.074Z,7.94
2022-12-29T06:53:39.724Z,7.86
2022-12-29T06:56:41.292Z,7.82
2022-12-29T06:59:42.767Z,7.73
2022-12-29T07:02:44.388Z,7.79
2022-12-29T07:05:46.075Z,7.65
2022-12-29T07:08:47.670Z,7.59
2022-12-29T07:11:49.199Z,7.66
2022-12-29T07:14:50.807Z,7.67
2022-12-29T07:17:52.423Z,7.77
2022-12-29T07:20:54.071Z,7.81
2022-12-29T07:23:56.026Z,7.70
2022-12-29T07:26:57.644Z,7.64
2022-12-29T07:29:59.176Z,7.65
2022-12-29T07:33:00.695Z,7.76
2022-12-29T07:36:02.147Z,7.85
2022-12-29T07:39:04.182Z,7.82
2022-12-29T07:42:05.908Z,7.92
2022-12-29T07:45:15.761Z,7.95
2022-12-29T07:48:24.376Z,7.95
2022-12-29T07:51:25.900Z,8.05
2022-12-29T07:54:27.593Z,8.13
2022-12-29T07:57:32.027Z,8.14
2022-12-29T08:00:34.092Z,8.12
2022-12-29T08:03:35.799Z,8.22
2022-12-29T08:06:37.403Z,8.19
2022-12-29T08:09:38.958Z,8.32
2022-12-29T08:12:41.792Z,8.32
2022-12-29T08:15:43.462Z,8.26
2022-12-29T08:18:45.237Z,8.19
2022-12-29T08:21:46.829Z,8.09
2022-12-29T08:24:48.334Z,7.96
2022-12-29T08:27:55.614Z,7.82
2022-12-29T08:31:02.287Z,7.78
2022-12-29T08:34:04.866Z,7.75
2022-12-29T08:37:06.407Z,7.76
2022-12-29T08:40:09.279Z,7.72
2022-12-29T08:43:18.455Z,7.72
2022-12-29T08:46:20.461Z,7.76
2022-12-29T08:49:22.042Z,7.82
2022-12-29T08:52:24.214Z,7.78
2022-12-29T08:55:26.959Z,7.81
2022-12-29T08:58:29.470Z,7.64
2022-12-29T09:01:31.363Z,7.50
2022-12-29T09:04:33.126Z,7.50
2022-12-29T09:07:34.940Z,7.52
2022-12-29T09:10:36.433Z,7.46
2022-12-29T09:13:38.041Z,7.51
2022-12-29T09:16:40.678Z,7.48
2022-12-29T09:19:45.037Z,7.48
2022-12-29T09:22:47.897Z,7.49
2022-12-29T09:25:49.426Z,7.47
2022-12-29T09:28:50.934Z,7.40
2022-12-29T09:31:52.548Z,7.45
2022-12-29T09:34:54.143Z,7.50
2022-12-29T09:37:55.769Z,7.56
2022-12-29T09:41:05.837Z,7.53
2022-12-29T09:44:27.008Z,7.53
2022-12-29T09:47:29.324Z,7.61
2022-12-29T09:50:39.893Z,7.64
2022-12-29T09:53:45.092Z,7.69
2022-12-29T09:56:48.018Z,7.79
2022-12-29T09:59:53.606Z,7.86
2022-12-29T10:03:13.623Z,7.91
2022-12-29T10:06:23.159Z,8.01
2022-12-29T10:09:54.454Z,8.00
2022-12-29T10:13:19.065Z,7.95
2022-12-29T10:16:57.341Z,7.95
2022-12-29T10:20:50.635Z,8.11
2022-12-29T10:23:54.660Z,8.07
2022-12-29T10:26:58.921Z,8.14
2022-12-29T10:30:02.875Z,8.24
2022-12-29T10:33:08.886Z,8.22
2022-12-29T10:36:18.903Z,8.13
2022-12-29T10:39:30.910Z,8.05
2022-12-29T10:42:45.835Z,8.05
2022-12-29T10:45:48.881Z,8.07
2022-12-29T10:48:50.754Z,8.11
2022-12-29T10:51:57.840Z,8.28
2022-12-29T10:55:05.521Z,8.39
2022-12-29T10:58:12.187Z,8.53
2022-12-29T11:01:13.969Z,8.70
2022-12-29T11:04:41.744Z,8.79
2022-12-29T11:07:43.681Z,8.86
2022-12-29T11:10:46.456Z,8.93
2022-12-29T11:13:51.423Z,8.89
2022-12-29T11:17:01.512Z,9.07
2022-12-29T11:20:27.520Z,9.16
2022-12-29T11:23:41.089Z,9.22
2022-12-29T11:26:45.022Z,9.31
2022-12-29T11:29:49.585Z,9.44
2022-12-29T11:32:53.033Z,9.26
2022-12-29T11:36:04.939Z,8.92
2022-12-29T11:39:12.147Z,8.68
2022-12-29T11:42:23.366Z,8.55
2022-12-29T11:45:34.890Z,8.54
2022-12-29T11:48:41.420Z,8.67
2022-12-29T11:51:50.629Z,8.67
2022-12-29T11:54:54.035Z,8.59
2022-12-29T11:57:58.196Z,8.48
2022-12-29T12:01:21.793Z,8.56
2022-12-29T12:04:35.304Z,8.60
2022-12-29T12:07:41.822Z,8.49
2022-12-29T12:10:58.217Z,8.45
2022-12-29T12:14:05.403Z,8.44
2022-12-29T12:17:42.177Z,8.43
2022-12-29T12:20:55.087Z,8.51
2022-12-29T12:24:21.943Z,8.60
2022-12-29T12:27:30.826Z,8.79
2022-12-29T12:30:46.962Z,8.85
2022-12-29T12:33:56.320Z,8.87
2022-12-29T12:37:09.825Z,8.93
2022-12-29T12:40:57.862Z,9.06
2022-12-29T12:44:07.023Z,8.99
2022-12-29T12:47:27.421Z,8.96
2022-12-29T12:51:00.113Z,8.87
2022-12-29T12:54:24.732Z,8.83
2022-12-29T12:57:32.661Z,8.85
2022-12-29T13:01:04.362Z,8.87
2022-12-29T13:04:38.297Z,8.94
2022-12-29T13:07:51.847Z,8.91
2022-12-29T13:11:55.755Z,8.88
2022-12-29T13:15:16.793Z,8.89
2022-12-29T13:18:55.802Z,8.87
2022-12-29T13:22:32.993Z,8.83
2022-12-29T13:25:48.531Z,8.88
2022-12-29T13:29:21.156Z,8.98
2022-12-29T13:32:47.006Z,9.00
2022-12-29T13:36:04.743Z,8.98
2022-12-29T13:39:21.455Z,8.95
2022-12-29T13:42:25.038Z,8.90
2022-12-29T13:45:31.876Z,8.93
2022-12-29T13:48:52.156Z,8.95
2022-12-29T13:51:57.501Z,8.91
2022-12-29T13:55:19.349Z,8.82
2022-12-29T13:58:33.232Z,8.54
2022-12-29T14:01:44.248Z,8.20
2022-12-29T14:05:18.389Z,7.97
2022-12-29T14:08:38.628Z,7.81
2022-12-29T14:11:41.560Z,7.68
2022-12-29T14:14:43.184Z,7.56
2022-12-29T14:17:45.691Z,7.57
2022-12-29T14:21:20.595Z,7.53
2022-12-29T14:24:45.004Z,7.48
2022-12-29T14:27:54.684Z,7.46
2022-12-29T14:30:58.792Z,7.45
2022-12-29T14:34:07.831Z,7.46
2022-12-29T14:37:28.914Z,7.42
2022-12-29T14:41:20.912Z,7.46
2022-12-29T14:44:24.265Z,7.66
2022-12-29T14:47:25.724Z,7.65
2022-12-29T14:50:45.414Z,7.64
2022-12-29T14:53:52.095Z,7.68
2022-12-29T14:56:57.895Z,7.75
2022-12-29T15:00:14.283Z,7.77
2022-12-29T15:03:38.980Z,7.78
2022-12-29T15:06:41.185Z,7.77
2022-12-29T15:09:47.213Z,7.78
2022-12-29T15:13:46.498Z,7.69
2022-12-29T15:17:28.555Z,7.80
2022-12-29T15:20:42.429Z,7.83
2022-12-29T15:23:50.151Z,7.83
2022-12-29T15:26:54.694Z,7.82
2022-12-29T15:30:04.103Z,7.78
2022-12-29T15:33:22.216Z,7.68
2022-12-29T15:36:29.763Z,7.72
2022-12-29T15:39:32.189Z,7.83
2022-12-29T15:43:12.311Z,7.89
2022-12-29T15:46:14.914Z,7.83
2022-12-29T15:49:17.116Z,7.82
2022-12-29T15:52:21.415Z,7.82
2022-12-29T15:55:31.042Z,7.80
2022-12-29T15:58:41.737Z,7.76
2022-12-29T16:01:43.673Z,7.75
2022-12-29T16:05:09.017Z,7.67
2022-12-29T16:08:34.283Z,7.65
2022-12-29T16:11:41.494Z,7.57
2022-12-29T16:14:55.380Z,7.47
2022-12-29T16:17:57.164Z,7.29
2022-12-29T16:20:58.953Z,7.26
2022-12-29T16:24:06.291Z,7.26
2022-12-29T16:27:17.693Z,7.20
2022-12-29T16:30:33.834Z,7.16
2022-12-29T16:33:47.900Z,7.21
2022-12-29T16:36:58.405Z,7.18
2022-12-29T16:40:18.412Z,7.12
2022-12-29T16:43:27.181Z,7.16
2022-12-29T16:46:30.665Z,7.05
2022-12-29T16:49:34.519Z,6.97
2022-12-29T16:52:36.206Z,7.01
2022-12-29T16:55:37.911Z,6.86
2022-12-29T16:58:39.898Z,6.82
2022-12-29T17:01:41.668Z,6.76
2022-12-29T17:04:43.352Z,6.86
2022-12-29T17:07:45.897Z,6.84
2022-12-29T17:10:47.470Z,6.80
2022-12-29T17:13:49.060Z,6.74
2022-12-29T17:16:50.698Z,6.73
2022-12-29T17:19:55.620Z,6.63
2022-12-29T17:22:58.689Z,6.61
2022-12-29T17:26:00.465Z,6.52
2022-12-29T17:29:02.021Z,6.44
2022-12-29T17:32:06.477Z,6.60
2022-12-29T17:35:15.027Z,6.65
2022-12-29T17:38:28.539Z,6.70
2022-12-29T17:41:30.301Z,6.66
2022-12-29T17:44:31.850Z,6.71
2022-12-29T17:47:33.468Z,6.72
2022-12-29T17:50:35.109Z,6.69
2022-12-29T17:53:36.763Z,6.60
2022-12-29T17:56:38.235Z,6.61
2022-12-29T17:59:41.070Z,6.56
2022-12-29T18:02:46.183Z,6.48
2022-12-29T18:05:47.873Z,6.43
2022-12-29T18:08:49.413Z,6.32
2022-12-29T18:11:51.027Z,6.28
2022-12-29T18:14:52.525Z,6.20
2022-12-29T18:18:12.046Z,6.18
2022-12-29T18:21:19.839Z,6.22
2022-12-29T18:24:21.363Z,6.24
2022-12-29T18:27:23.019Z,6.29
2022-12-29T18:30:24.465Z,6.28
2022-12-29T18:33:26.946Z,6.29
2022-12-29T18:36:31.257Z,6.24
2022-12-29T18:39:33.893Z,6.27
2022-12-29T18:42:35.410Z,6.30
2022-12-29T18:45:37.907Z,6.33
2022-12-29T18:48:39.805Z,6.37
2022-12-29T18:51:41.418Z,6.35
2022-12-29T18:54:42.980Z,6.28
2022-12-29T18:57:44.970Z,6.31
2022-12-29T19:00:46.885Z,6.38
2022-12-29T19:03:48.649Z,6.35
2022-12-29T19:06:50.206Z,6.34
2022-12-29T19:09:52.098Z,6.41
2022-12-29T19:12:54.391Z,6.27
2022-12-29T19:15:57.140Z,6.38
2022-12-29T19:19:08.937Z,6.31
2022-12-29T19:22:11.172Z,6.34
2022-12-29T19:25:12.608Z,6.45
2022-12-29T19:28:24.092Z,6.47
2022-12-29T19:31:25.834Z,6.40
2022-12-29T19:34:27.501Z,6.29
2022-12-29T19:37:29.039Z,6.23
2022-12-29T19:40:30.716Z,6.09
2022-12-29T19:43:32.229Z,5.99
2022-12-29T19:46:34.372Z,5.98
2022-12-29T19:49:35.982Z,6.07
2022-12-29T19:52:37.602Z,5.97
2022-12-29T19:55:46.252Z,5.90
2022-12-29T19:58:48.075Z,5.94
2022-12-29T20:01:49.860Z,5.96
2022-12-29T20:04:52.159Z,5.88
2022-12-29T20:07:53.746Z,5.90
2022-12-29T20:11:00.796Z,5.81
2022-12-29T20:14:02.453Z,5.87
2022-12-29T20:17:12.585Z,5.90
2022-12-29T20:20:14.397Z,5.76
2022-12-29T20:23:16.032Z,5.77
2022-12-29T20:26:20.495Z,5.73
2022-12-29T20:29:23.039Z,5.75
2022-12-29T20:32:24.548Z,5.80
2022-12-29T20:35:26.189Z,5.86
2022-12-29T20:38:27.787Z,5.79
2022-12-29T20:41:29.492Z,5.77
2022-12-29T20:44:32.748Z,5.78
2022-12-29T20:47:34.386Z,5.75
2022-12-29T20:50:35.921Z,5.69
2022-12-29T20:53:38.750Z,5.64
2022-12-29T20:56:40.293Z,5.77
2022-12-29T20:59:41.859Z,5.81
2022-12-29T21:02:43.508Z,5.93
2022-12-29T21:05:45.093Z,5.85
2022-12-29T21:08:49.053Z,5.87
2022-12-29T21:11:50.511Z,5.84
2022-12-29T21:14:52.000Z,5.80
2022-12-29T21:17:53.653Z,5.84
2022-12-29T21:21:07.317Z,5.96
2022-12-29T21:24:08.925Z,5.83
2022-12-29T21:27:10.464Z,5.76
2022-12-29T21:30:12.475Z,5.78
2022-12-29T21:33:14.058Z,5.68
2022-12-29T21:36:15.534Z,5.53
2022-12-29T21:39:17.050Z,5.53
2022-12-29T21:42:18.754Z,5.46
2022-12-29T21:45:21.165Z,5.48
2022-12-29T21:48:26.372Z,5.56
2022-12-29T21:51:30.556Z,5.51
2022-12-29T21:54:35.014Z,5.42
2022-12-29T21:57:39.677Z,5.41
2022-12-29T22:00:41.319Z,5.38
2022-12-29T22:03:42.969Z,5.37
2022-12-29T22:06:44.768Z,5.21
2022-12-29T22:10:12.463Z,5.13
2022-12-29T22:13:16.454Z,5.22
2022-12-29T22:16:18.086Z,5.23
2022-12-29T22:19:19.712Z,5.32
2022-12-29T22:22:21.243Z,5.27
2022-12-29T22:25:22.916Z,5.25
2022-12-29T22:28:24.445Z,5.21
2022-12-29T22:31:28.467Z,5.30
2022-12-29T22:34:30.151Z,5.18
2022-12-29T22:37:33.653Z,5.17
2022-12-29T22:40:35.181Z,5.21
2022-12-29T22:43:36.682Z,5.14
2022-12-29T22:46:38.255Z,5.12
2022-12-29T22:49:39.818Z,5.14
2022-12-29T22:52:41.324Z,5.17
2022-12-29T22:56:06.023Z,5.11
2022-12-29T22:59:11.866Z,5.00
2022-12-29T23:02:13.537Z,5.14
2022-12-29T23:05:15.221Z,5.11
2022-12-29T23:08:16.784Z,5.02
2022-12-29T23:11:18.363Z,4.98
2022-12-29T23:14:20.073Z,4.89
2022-12-29T23:17:21.567Z,4.83
2022-12-29T23:20:23.059Z,4.83
2022-12-29T23:23:24.694Z,4.88
2022-12-29T23:26:31.526Z,4.85
2022-12-29T23:29:33.141Z,4.88
2022-12-29T23:32:34.660Z,4.81
2022-12-29T23:35:36.218Z,4.83
2022-12-29T23:38:37.812Z,4.79
2022-12-29T23:41:39.461Z,4.65
2022-12-29T23:44:40.996Z,4.81
2022-12-29T23:47:42.577Z,4.80
2022-12-29T23:50:44.143Z,4.77
2022-12-29T23:53:46.107Z,4.71
2022-12-29T23:56:47.652Z,4.61
2022-12-29T23:59:49.222Z,4.64
